createdAt,value
2022-11-23T00:01:51.494Z,4.80
2022-11-23T00:04:25.781Z,4.70
2022-11-23T00:06:55.439Z,4.70
2022-11-23T00:09:34.604Z,4.70
2022-11-23T00:12:02.525Z,4.70
2022-11-23T00:14:33.353Z,4.70
2022-11-23T00:17:05.391Z,4.70
2022-11-23T00:19:33.654Z,4.70
2022-11-23T00:22:06.478Z,4.70
2022-11-23T00:24:36.244Z,4.70
2022-11-23T00:27:08.450Z,4.60
2022-11-23T00:29:36.425Z,4.60
2022-11-23T00:32:06.349Z,4.60
2022-11-23T00:34:38.518Z,4.60
2022-11-23T00:37:06.902Z,4.60
2022-11-23T00:39:34.698Z,4.60
2022-11-23T00:42:05.185Z,4.50
2022-11-23T00:44:36.740Z,4.50
2022-11-23T00:47:06.180Z,4.50
2022-11-23T00:49:37.686Z,4.50
2022-11-23T00:52:11.164Z,4.50
2022-11-23T00:54:39.139Z,4.50
2022-11-23T00:57:26.935Z,4.50
2022-11-23T00:59:55.322Z,4.50
2022-11-23T01:02:27.578Z,4.60
2022-11-23T01:05:03.532Z,4.60
2022-11-23T01:07:38.488Z,4.60
2022-11-23T01:10:18.521Z,4.60
2022-11-23T01:12:53.246Z,4.60
2022-11-23T01:15:28.981Z,4.60
2022-11-23T01:18:08.018Z,4.60
2022-11-23T01:20:37.964Z,4.60
2022-11-23T01:23:06.321Z,4.60
2022-11-23T01:30:49.803Z,4.60
2022-11-23T01:33:18.075Z,4.60
2022-11-23T01:35:52.010Z,4.60
2022-11-23T01:38:21.713Z,4.60
2022-11-23T01:40:52.735Z,4.60
2022-11-23T01:43:22.484Z,4.60
2022-11-23T01:46:33.794Z,4.60
2022-11-23T01:49:07.969Z,4.70
2022-11-23T01:51:41.216Z,4.60
2022-11-23T01:54:46.628Z,4.70
2022-11-23T01:57:39.806Z,4.70
2022-11-23T02:00:11.597Z,4.70
2022-11-23T02:03:10.621Z,4.70
2022-11-23T02:06:01.605Z,4.70
2022-11-23T02:08:31.911Z,4.70
2022-11-23T02:11:00.763Z,4.70
2022-11-23T02:13:54.366Z,4.70
2022-11-23T02:16:22.777Z,4.70
2022-11-23T02:18:53.301Z,4.70
2022-11-23T02:21:24.180Z,4.70
2022-11-23T02:24:20.745Z,4.70
2022-11-23T02:26:49.498Z,4.70
2022-11-23T02:29:24.382Z,4.70
2022-11-23T02:31:53.667Z,4.70
2022-11-23T02:34:25.431Z,4.70
2022-11-23T02:36:57.968Z,4.70
2022-11-23T02:39:42.689Z,4.70
2022-11-23T02:42:11.128Z,4.70
2022-11-23T02:45:08.911Z,4.80
2022-11-23T02:47:38.170Z,4.70
2022-11-23T02:50:11.131Z,4.80
2022-11-23T02:52:40.434Z,4.70
2022-11-23T02:55:10.891Z,4.70
2022-11-23T02:57:39.376Z,4.70
2022-11-23T03:00:12.647Z,4.70
2022-11-23T03:02:42.460Z,4.60
2022-11-23T03:05:13.671Z,4.60
2022-11-23T03:07:42.120Z,4.60
2022-11-23T03:10:15.391Z,4.60
2022-11-23T03:12:45.253Z,4.60
2022-11-23T03:15:16.592Z,4.60
2022-11-23T03:17:46.500Z,4.60
2022-11-23T03:20:17.966Z,4.60
2022-11-23T03:22:48.977Z,4.50
2022-11-23T03:25:18.783Z,4.50
2022-11-23T03:27:50.252Z,4.50
2022-11-23T03:30:20.410Z,4.50
2022-11-23T03:32:51.469Z,4.50
2022-11-23T03:35:24.535Z,4.50
2022-11-23T03:38:17.153Z,4.50
2022-11-23T03:40:48.464Z,4.50
2022-11-23T03:43:25.263Z,4.60
2022-11-23T03:45:53.411Z,4.60
2022-11-23T03:48:25.508Z,4.60
2022-11-23T03:50:54.035Z,4.60
2022-11-23T03:53:22.147Z,4.60
2022-11-23T03:55:50.202Z,4.60
2022-11-23T03:58:20.403Z,4.60
2022-11-23T04:00:50.181Z,4.60
2022-11-23T04:03:18.304Z,4.60
2022-11-23T04:06:08.978Z,4.70
2022-11-23T04:08:50.908Z,4.70
2022-11-23T04:11:32.952Z,4.70
2022-11-23T04:14:04.431Z,4.70
2022-11-23T04:16:32.767Z,4.70
2022-11-23T04:19:00.758Z,4.70
2022-11-23T04:21:30.300Z,4.70
2022-11-23T04:24:19.293Z,4.70
2022-11-23T04:27:02.886Z,4.70
2022-11-23T04:29:31.219Z,4.70
2022-11-23T04:32:05.260Z,4.70
2022-11-23T04:34:34.099Z,4.70
2022-11-23T04:37:13.096Z,4.70
2022-11-23T04:39:42.936Z,4.60
2022-11-23T04:42:24.533Z,4.50
2022-11-23T04:44:59.933Z,4.50
2022-11-23T04:47:27.963Z,4.50
2022-11-23T04:49:59.540Z,4.50
2022-11-23T04:52:27.359Z,4.50
2022-11-23T04:54:55.379Z,4.50
2022-11-23T04:57:24.268Z,4.50
2022-11-23T04:59:57.053Z,4.50
2022-11-23T05:02:27.118Z,4.40
2022-11-23T05:05:10.404Z,4.50
2022-11-23T05:07:39.554Z,4.50
2022-11-23T05:10:08.273Z,4.50
2022-11-23T05:12:37.447Z,4.50
2022-11-23T05:15:06.264Z,4.50
2022-11-23T05:17:39.477Z,4.50
2022-11-23T05:20:13.397Z,4.40
2022-11-23T05:22:46.785Z,4.40
2022-11-23T05:25:18.146Z,4.40
2022-11-23T05:27:48.343Z,4.40
2022-11-23T05:30:16.435Z,4.40
2022-11-23T05:32:46.526Z,4.40
2022-11-23T05:35:15.162Z,4.50
2022-11-23T05:37:44.260Z,4.40
2022-11-23T05:40:14.166Z,4.40
2022-11-23T05:42:42.894Z,4.40
2022-11-23T05:45:17.165Z,4.30
2022-11-23T05:47:52.717Z,4.30
2022-11-23T05:50:30.194Z,4.40
2022-11-23T05:53:27.603Z,4.40
2022-11-23T05:56:07.484Z,4.30
2022-11-23T05:58:42.293Z,4.20
2022-11-23T06:01:10.885Z,4.20
2022-11-23T06:03:40.616Z,4.20
2022-11-23T06:06:08.647Z,4.10
2022-11-23T06:08:40.510Z,4.10
2022-11-23T06:11:09.399Z,4.00
2022-11-23T06:13:37.835Z,4.00
2022-11-23T06:16:07.957Z,3.90
2022-11-23T06:18:47.270Z,3.70
2022-11-23T06:21:17.320Z,3.50
2022-11-23T06:23:48.516Z,3.40
2022-11-23T06:26:17.598Z,3.20
2022-11-23T06:28:46.794Z,3.30
2022-11-23T06:31:17.855Z,3.20
2022-11-23T06:33:47.244Z,3.20
2022-11-23T06:36:16.875Z,3.10
2022-11-23T06:38:54.915Z,3.00
2022-11-23T06:41:32.181Z,2.90
2022-11-23T06:44:03.839Z,2.90
2022-11-23T06:46:41.156Z,2.80
2022-11-23T06:49:10.930Z,2.80
2022-11-23T06:51:41.608Z,2.80
2022-11-23T06:54:12.650Z,2.80
2022-11-23T06:56:42.185Z,2.80
2022-11-23T06:59:13.515Z,2.90
2022-11-23T07:01:42.017Z,2.90
2022-11-23T07:04:13.562Z,2.90
2022-11-23T07:06:50.212Z,2.90
2022-11-23T07:09:30.156Z,2.70
2022-11-23T07:12:18.804Z,2.60
2022-11-23T07:14:47.137Z,2.60
2022-11-23T07:17:17.541Z,2.50
2022-11-23T07:19:48.446Z,2.40
2022-11-23T07:22:18.921Z,2.40
2022-11-23T07:24:48.931Z,2.30
2022-11-23T07:27:21.862Z,2.30
2022-11-23T07:29:50.772Z,2.40
2022-11-23T07:32:20.018Z,2.40
2022-11-23T07:34:48.195Z,2.70
2022-11-23T07:37:17.797Z,3.20
2022-11-23T07:40:03.644Z,3.70
2022-11-23T07:42:43.147Z,4.40
2022-11-23T07:45:13.244Z,5.00
2022-11-23T07:47:46.080Z,5.70
2022-11-23T07:50:14.725Z,6.10
2022-11-23T07:52:42.727Z,6.60
2022-11-23T07:55:10.779Z,7.10
2022-11-23T07:57:38.524Z,7.50
2022-11-23T08:00:10.742Z,8.10
2022-11-23T08:02:57.986Z,8.70
2022-11-23T08:05:35.612Z,9.30
2022-11-23T08:08:03.961Z,9.80
2022-11-23T08:10:32.712Z,10.10
2022-11-23T08:13:04.476Z,10.30
2022-11-23T08:15:33.757Z,10.40
2022-11-23T08:18:03.939Z,10.50
2022-11-23T08:20:33.350Z,10.60
2022-11-23T08:23:03.998Z,10.80
2022-11-23T08:25:32.759Z,10.50
2022-11-23T08:28:04.990Z,10.10
2022-11-23T08:30:34.437Z,9.80
2022-11-23T08:33:06.661Z,9.30
2022-11-23T08:35:39.244Z,8.70
2022-11-23T08:38:08.990Z,8.20
2022-11-23T08:40:37.683Z,7.70
2022-11-23T08:43:09.902Z,7.40
2022-11-23T08:45:37.672Z,7.20
2022-11-23T08:48:06.071Z,6.90
2022-11-23T08:50:35.496Z,6.60
2022-11-23T08:53:03.871Z,6.30
2022-11-23T08:55:32.353Z,6.10
2022-11-23T08:58:00.293Z,6.00
2022-11-23T09:00:31.607Z,5.90
2022-11-23T09:03:00.111Z,5.80
2022-11-23T09:05:31.478Z,5.70
2022-11-23T09:08:03.742Z,5.60
2022-11-23T09:10:31.917Z,5.60
2022-11-23T09:12:59.916Z,5.60
2022-11-23T09:15:28.013Z,5.60
2022-11-23T09:17:57.760Z,5.60
2022-11-23T09:20:26.493Z,5.60
2022-11-23T09:22:57.803Z,5.60
2022-11-23T09:25:25.762Z,5.60
2022-11-23T09:28:00.181Z,5.60
2022-11-23T09:30:30.988Z,5.70
2022-11-23T09:33:00.806Z,5.60
2022-11-23T09:35:32.980Z,5.70
2022-11-23T09:38:01.538Z,5.70
2022-11-23T09:40:34.150Z,5.70
2022-11-23T09:43:25.725Z,5.70
2022-11-23T09:46:00.210Z,5.70
2022-11-23T09:48:51.352Z,5.70
2022-11-23T09:51:21.555Z,5.80
2022-11-23T09:54:04.106Z,5.90
2022-11-23T09:56:36.785Z,5.90
2022-11-23T09:59:27.772Z,6.00
2022-11-23T10:01:56.933Z,6.00
2022-11-23T10:04:25.473Z,6.00
2022-11-23T10:07:18.113Z,6.10
2022-11-23T10:10:03.571Z,6.20
2022-11-23T10:13:06.711Z,6.20
2022-11-23T10:16:03.159Z,6.20
2022-11-23T10:18:58.005Z,6.20
2022-11-23T10:22:12.608Z,6.20
2022-11-23T10:24:51.580Z,6.30
2022-11-23T10:27:23.693Z,6.40
2022-11-23T10:29:56.254Z,6.50
2022-11-23T10:32:45.689Z,6.50
2022-11-23T10:35:38.366Z,6.50
2022-11-23T10:38:19.482Z,6.60
2022-11-23T10:41:08.029Z,6.60
2022-11-23T10:44:00.847Z,6.50
2022-11-23T10:46:41.046Z,6.60
2022-11-23T10:49:18.346Z,6.60
2022-11-23T10:52:26.961Z,6.70
2022-11-23T10:54:58.817Z,6.70
2022-11-23T10:57:34.747Z,6.80
2022-11-23T11:00:19.467Z,6.90
2022-11-23T11:02:49.861Z,6.90
2022-11-23T11:08:30.981Z,7.10
2022-11-23T11:11:03.838Z,7.10
2022-11-23T11:13:47.715Z,7.10
2022-11-23T11:16:34.042Z,7.30
2022-11-23T11:19:22.179Z,7.30
2022-11-23T11:21:50.052Z,7.40
2022-11-23T11:24:22.483Z,7.50
2022-11-23T11:27:06.545Z,7.60
2022-11-23T11:29:45.593Z,7.70
2022-11-23T11:32:23.657Z,7.90
2022-11-23T11:35:25.070Z,8.00
2022-11-23T11:38:00.396Z,8.20
2022-11-23T11:40:44.521Z,8.30
2022-11-23T11:43:49.196Z,8.50
2022-11-23T11:46:36.429Z,8.70
2022-11-23T11:49:44.865Z,8.90
2022-11-23T11:52:23.670Z,9.60
2022-11-23T11:55:15.940Z,11.00
2022-11-23T11:58:14.367Z,12.60
2022-11-23T12:00:45.165Z,13.90
2022-11-23T12:03:23.884Z,15.00
2022-11-23T12:06:00.926Z,16.10
2022-11-23T12:08:47.753Z,16.30
2022-11-23T12:11:15.894Z,16.20
2022-11-23T12:13:47.977Z,17.10
2022-11-23T12:16:44.130Z,17.70
2022-11-23T12:19:48.671Z,17.00
2022-11-23T12:23:00.357Z,17.30
2022-11-23T12:25:38.208Z,17.90
2022-11-23T12:28:36.715Z,18.50
2022-11-23T12:31:54.119Z,18.60
2022-11-23T12:34:50.232Z,18.50
2022-11-23T12:37:50.446Z,18.60
2022-11-23T12:40:49.808Z,18.70
2022-11-23T12:43:54.286Z,19.10
2022-11-23T12:46:49.133Z,18.30
2022-11-23T12:49:39.351Z,17.10
2022-11-23T12:52:55.935Z,17.70
2022-11-23T12:56:05.355Z,18.80
2022-11-23T12:58:35.547Z,18.00
2022-11-23T13:01:32.012Z,17.60
2022-11-23T13:04:34.494Z,17.80
2022-11-23T13:07:46.292Z,18.80
2022-11-23T13:10:53.379Z,18.90
2022-11-23T13:13:34.947Z,18.40
2022-11-23T13:16:36.854Z,18.00
2022-11-23T13:19:20.885Z,18.60
2022-11-23T13:21:49.113Z,17.60
2022-11-23T13:24:32.981Z,17.50
2022-11-23T13:27:13.968Z,17.10
2022-11-23T13:29:49.911Z,17.00
2022-11-23T13:32:39.191Z,16.50
2022-11-23T13:35:24.881Z,16.80
2022-11-23T13:38:00.296Z,17.30
2022-11-23T13:40:37.687Z,18.40
2022-11-23T13:43:22.655Z,19.00
2022-11-23T13:46:24.024Z,18.80
2022-11-23T13:48:59.160Z,17.80
2022-11-23T13:51:35.358Z,17.70
2022-11-23T13:54:34.822Z,17.40
2022-11-23T13:57:10.921Z,16.70
2022-11-23T13:59:38.653Z,16.40
2022-11-23T14:02:11.251Z,16.30
2022-11-23T14:04:40.786Z,16.20
2022-11-23T14:07:43.400Z,16.40
2022-11-23T14:10:25.194Z,17.20
2022-11-23T14:13:08.569Z,17.40
2022-11-23T14:15:40.975Z,17.40
2022-11-23T14:18:35.068Z,17.40
2022-11-23T14:21:40.459Z,17.70
2022-11-23T14:24:49.738Z,17.60
2022-11-23T14:30:24.283Z,18.30
2022-11-23T14:33:13.498Z,18.90
2022-11-23T14:35:54.193Z,18.70
2022-11-23T14:39:10.005Z,18.80
2022-11-23T14:41:38.616Z,18.60
2022-11-23T14:44:13.488Z,17.90
2022-11-23T14:47:00.653Z,17.80
2022-11-23T14:49:30.931Z,17.20
2022-11-23T14:51:59.720Z,16.10
2022-11-23T14:54:30.085Z,14.70
2022-11-23T14:57:00.410Z,13.60
2022-11-23T14:59:40.501Z,12.70
2022-11-23T15:02:35.924Z,11.60
2022-11-23T15:05:26.692Z,10.60
2022-11-23T15:08:21.233Z,9.60
2022-11-23T15:10:52.304Z,9.00
2022-11-23T15:13:31.468Z,8.30
2022-11-23T15:15:58.902Z,7.80
2022-11-23T15:18:28.999Z,7.30
2022-11-23T15:21:01.059Z,6.90
2022-11-23T15:23:35.720Z,6.60
2022-11-23T15:26:12.297Z,6.20
2022-11-23T15:28:40.301Z,6.00
2022-11-23T15:31:30.970Z,5.70
2022-11-23T15:34:03.803Z,5.40
2022-11-23T15:36:35.768Z,5.10
2022-11-23T15:39:09.302Z,4.80
2022-11-23T15:41:42.417Z,4.60
2022-11-23T15:44:24.820Z,4.40
2022-11-23T15:47:06.978Z,4.20
2022-11-23T15:49:41.491Z,4.00
2022-11-23T15:52:16.672Z,3.80
2022-11-23T15:54:45.354Z,3.70
2022-11-23T15:57:26.077Z,3.50
2022-11-23T16:00:00.037Z,3.40
2022-11-23T16:02:39.729Z,3.20
2022-11-23T16:05:17.894Z,3.10
2022-11-23T16:07:57.505Z,3.00
2022-11-23T16:10:30.823Z,2.90
2022-11-23T16:13:02.810Z,2.70
2022-11-23T16:15:41.614Z,2.60
2022-11-23T16:18:31.878Z,2.40
2022-11-23T16:21:05.035Z,2.30
2022-11-23T16:28:18.286Z,2.00
2022-11-23T16:31:35.624Z,1.90
2022-11-23T16:34:18.946Z,1.80
2022-11-23T16:45:24.352Z,1.60
2022-11-23T16:52:18.685Z,1.30
2022-11-23T17:03:06.614Z,1.10
2022-11-23T17:05:58.342Z,1.10
2022-11-23T17:08:37.449Z,1.10
2022-11-23T17:15:41.817Z,0.90
2022-11-23T17:18:15.645Z,0.90
2022-11-23T17:25:15.123Z,0.80
2022-11-23T17:27:49.138Z,0.90
2022-11-23T17:30:32.884Z,1.00
2022-11-23T17:33:46.576Z,1.10
2022-11-23T17:36:14.707Z,1.20
2022-11-23T17:39:18.636Z,1.30
2022-11-23T17:42:03.089Z,1.50
2022-11-23T17:49:13.091Z,1.90
2022-11-23T17:51:41.158Z,2.10
2022-11-23T17:54:09.934Z,2.20
2022-11-23T17:56:38.729Z,2.20
2022-11-23T17:59:07.659Z,2.40
2022-11-23T18:01:53.723Z,2.50
2022-11-23T18:04:22.026Z,2.60
2022-11-23T18:06:50.421Z,2.80
2022-11-23T18:09:18.463Z,2.90
2022-11-23T18:12:04.475Z,2.90
2022-11-23T18:14:32.586Z,3.00
2022-11-23T18:17:01.185Z,3.00
2022-11-23T18:19:32.480Z,3.10
2022-11-23T18:22:00.605Z,3.10
2022-11-23T18:28:42.019Z,3.60
2022-11-23T18:31:10.545Z,3.90
2022-11-23T18:38:04.813Z,4.00
2022-11-23T18:44:56.024Z,4.50
2022-11-23T18:51:46.613Z,4.20
2022-11-23T18:58:56.076Z,3.90
2022-11-23T19:05:47.756Z,3.90
2022-11-23T19:08:17.265Z,3.80
2022-11-23T19:10:45.159Z,3.70
2022-11-23T19:13:13.169Z,3.70
2022-11-23T19:15:41.353Z,3.70
2022-11-23T19:18:09.233Z,3.70
2022-11-23T19:20:37.494Z,3.60
2022-11-23T19:23:05.673Z,3.50
2022-11-23T19:25:33.775Z,3.50
2022-11-23T19:28:04.505Z,3.30
2022-11-23T19:30:32.686Z,3.30
2022-11-23T19:33:00.525Z,3.10
2022-11-23T19:35:29.826Z,3.10
2022-11-23T19:37:58.522Z,3.10
2022-11-23T19:40:26.554Z,3.00
2022-11-23T19:42:54.599Z,2.90
2022-11-23T19:45:22.613Z,2.90
2022-11-23T19:47:50.833Z,2.80
2022-11-23T19:50:19.125Z,2.80
2022-11-23T19:53:11.114Z,2.80
2022-11-23T19:55:36.861Z,2.70
2022-11-23T19:58:06.140Z,2.70
2022-11-23T20:00:34.078Z,2.80
2022-11-23T20:03:03.556Z,2.80
2022-11-23T20:05:32.201Z,2.80
2022-11-23T20:08:01.877Z,2.90
2022-11-23T20:10:30.995Z,2.90
2022-11-23T20:12:59.359Z,2.90
2022-11-23T20:15:27.637Z,3.00
2022-11-23T20:17:57.026Z,3.00
2022-11-23T20:20:25.228Z,3.00
2022-11-23T20:22:53.238Z,3.10
2022-11-23T20:25:21.391Z,3.10
2022-11-23T20:27:49.476Z,3.20
2022-11-23T20:30:17.999Z,3.30
2022-11-23T20:32:49.242Z,3.50
2022-11-23T20:35:19.704Z,3.70
2022-11-23T20:37:48.346Z,3.90
2022-11-23T20:40:16.614Z,4.10
2022-11-23T20:42:44.860Z,4.20
2022-11-23T20:45:13.310Z,4.30
2022-11-23T20:47:41.561Z,4.50
2022-11-23T20:50:10.101Z,4.60
2022-11-23T20:52:38.195Z,4.60
2022-11-23T20:55:06.575Z,4.60
2022-11-23T20:57:34.600Z,4.70
2022-11-23T21:00:06.885Z,4.80
2022-11-23T21:02:35.087Z,4.80
2022-11-23T21:05:05.128Z,4.90
2022-11-23T21:07:33.578Z,4.90
2022-11-23T21:10:01.475Z,4.90
2022-11-23T21:12:50.674Z,5.00
2022-11-23T21:15:19.188Z,5.00
2022-11-23T21:17:47.406Z,5.00
2022-11-23T21:20:16.414Z,5.00
2022-11-23T21:22:44.407Z,5.10
2022-11-23T21:25:12.758Z,5.10
2022-11-23T21:27:40.785Z,5.10
2022-11-23T21:30:10.518Z,5.10
2022-11-23T21:32:38.818Z,5.10
2022-11-23T21:35:07.507Z,5.10
2022-11-23T21:37:35.463Z,5.10
2022-11-23T21:40:03.714Z,5.20
2022-11-23T21:42:31.846Z,5.20
2022-11-23T21:44:59.854Z,5.20
2022-11-23T21:47:28.946Z,5.30
2022-11-23T21:49:56.896Z,5.20
2022-11-23T21:52:24.947Z,5.20
2022-11-23T21:54:52.818Z,5.20
2022-11-23T21:57:21.168Z,5.20
2022-11-23T21:59:49.280Z,5.20
2022-11-23T22:02:19.873Z,5.10
2022-11-23T22:04:46.744Z,5.10
2022-11-23T22:07:14.954Z,5.10
2022-11-23T22:09:43.144Z,5.10
2022-11-23T22:12:11.157Z,5.20
2022-11-23T22:14:39.465Z,5.30
2022-11-23T22:17:08.200Z,5.30
2022-11-23T22:19:36.178Z,5.30
2022-11-23T22:22:06.339Z,5.30
2022-11-23T22:24:34.809Z,5.30
2022-11-23T22:27:04.903Z,5.30
2022-11-23T22:29:32.767Z,5.30
2022-11-23T22:32:00.676Z,5.30
2022-11-23T22:34:33.404Z,5.40
2022-11-23T22:37:10.209Z,5.40
2022-11-23T22:39:38.794Z,5.40
2022-11-23T22:42:07.180Z,5.40
2022-11-23T22:44:35.305Z,5.40
2022-11-23T22:47:04.552Z,5.40
2022-11-23T22:49:32.692Z,5.30
2022-11-23T22:52:00.560Z,5.30
2022-11-23T22:54:32.684Z,5.30
2022-11-23T22:57:00.710Z,5.30
2022-11-23T22:59:34.397Z,5.40
2022-11-23T23:02:02.221Z,5.40
2022-11-23T23:04:30.414Z,5.40
2022-11-23T23:06:59.631Z,5.50
2022-11-23T23:09:27.580Z,5.50
2022-11-23T23:11:55.703Z,5.60
2022-11-23T23:14:24.041Z,5.60
2022-11-23T23:16:52.327Z,5.60
2022-11-23T23:19:20.517Z,5.50
2022-11-23T23:21:48.537Z,5.50
2022-11-23T23:24:16.351Z,5.50
2022-11-23T23:26:44.172Z,5.40
2022-11-23T23:29:12.363Z,5.30
2022-11-23T23:31:40.228Z,5.40
2022-11-23T23:34:08.481Z,5.30
2022-11-23T23:36:37.086Z,5.40
2022-11-23T23:39:05.418Z,5.40
2022-11-23T23:41:33.916Z,5.40
2022-11-23T23:44:04.689Z,5.30
2022-11-23T23:46:32.548Z,5.30
2022-11-23T23:49:01.096Z,5.30
2022-11-23T23:51:31.660Z,5.20
2022-11-23T23:53:59.471Z,5.20
2022-11-23T23:56:28.907Z,5.30
2022-11-23T23:58:59.096Z,5.30
